Time;durP1;ratioP1;P1;durP2;ratioP2;P2;SDS_P1;SDS_P2;PMS_P1;PMS_P2;Temp;Humidity;BMP_temperature;BMP_pressure;BME280_temperature;BME280_humidity;BME280_pressure;Samples;Min_cycle;Max_cycle;Signal;HPM_P1;HPM_P2
2024/02/02 00:02:09;;;;;;;8.43;2.67;;;6.40;99.90;;;;;;5098511;28;20437;-34
2024/02/02 00:04:34;;;;;;;9.63;3.25;;;6.40;99.90;;;;;;5098354;28;20015;-33
2024/02/02 00:07:00;;;;;;;7.68;2.83;;;6.40;99.90;;;;;;5098520;28;20031;-36
2024/02/02 00:09:28;;;;;;;4.32;2.08;;;6.40;99.90;;;;;;5099297;28;20285;-35
2024/02/02 00:11:54;;;;;;;5.35;2.25;;;6.40;99.90;;;;;;5098604;28;20501;-36
2024/02/02 00:14:19;;;;;;;6.43;2.22;;;6.40;99.90;;;;;;5099171;28;20016;-35
2024/02/02 00:16:45;;;;;;;6.95;2.60;;;6.40;99.90;;;;;;5099844;28;20152;-36
2024/02/02 00:19:11;;;;;;;6.03;2.25;;;6.40;99.90;;;;;;5099752;28;20134;-34
2024/02/02 00:21:36;;;;;;;7.65;2.08;;;6.40;99.90;;;;;;5102798;28;20035;-33
2024/02/02 00:24:02;;;;;;;5.82;2.40;;;6.40;99.90;;;;;;5102838;28;20847;-35
2024/02/02 00:26:28;;;;;;;6.32;2.53;;;6.40;99.90;;;;;;5101916;28;20035;-35
2024/02/02 00:28:53;;;;;;;6.03;2.40;;;6.40;99.90;;;;;;5102544;28;20100;-34
2024/02/02 00:31:21;;;;;;;11.55;3.10;;;6.40;99.90;;;;;;5102927;28;20710;-35
2024/02/02 00:33:48;;;;;;;5.93;2.45;;;6.40;99.90;;;;;;5102105;28;20812;-34
2024/02/02 00:36:13;;;;;;;7.63;3.30;;;6.40;99.90;;;;;;5102034;28;20031;-33
2024/02/02 00:38:39;;;;;;;7.15;3.65;;;6.40;99.90;;;;;;5102082;28;20034;-31
2024/02/02 00:41:07;;;;;;;8.77;3.13;;;6.40;99.90;;;;;;5101482;28;20028;-33
2024/02/02 00:43:34;;;;;;;7.90;2.97;;;6.40;99.90;;;;;;5101485;28;20764;-33
2024/02/02 00:46:00;;;;;;;7.93;3.10;;;6.40;99.90;;;;;;5101708;28;20028;-35
2024/02/02 00:48:26;;;;;;;6.93;3.30;;;6.40;99.90;;;;;;5101936;28;20026;-38
2024/02/02 00:50:51;;;;;;;10.85;3.30;;;6.40;99.90;;;;;;5102569;28;20019;-33
2024/02/02 00:53:17;;;;;;;9.27;3.35;;;6.40;99.90;;;;;;5101644;28;20048;-35
2024/02/02 00:55:42;;;;;;;8.48;3.17;;;6.50;99.90;;;;;;5101658;28;20030;-34
2024/02/02 00:58:08;;;;;;;9.70;3.38;;;6.50;99.90;;;;;;5102304;28;20035;-32
2024/02/02 01:00:34;;;;;;;8.27;3.72;;;6.50;99.90;;;;;;5101281;28;20296;-34
2024/02/02 01:02:59;;;;;;;8.30;3.50;;;6.50;99.90;;;;;;5102176;28;20469;-35
2024/02/02 01:05:25;;;;;;;10.52;3.40;;;6.50;99.90;;;;;;5101226;28;20108;-34
2024/02/02 01:07:51;;;;;;;8.35;3.70;;;6.60;99.90;;;;;;5101334;28;20430;-35
2024/02/02 01:10:17;;;;;;;8.80;3.80;;;6.60;99.90;;;;;;5101305;28;20015;-32
2024/02/02 01:12:44;;;;;;;8.57;3.72;;;6.60;99.90;;;;;;5102054;28;20522;-35
2024/02/02 01:15:10;;;;;;;6.72;3.25;;;6.60;99.90;;;;;;5100026;28;20804;-34
2024/02/02 01:17:48;;;;;;;6.38;3.40;;;6.60;99.90;;;;;;5100988;28;20470;-36
2024/02/02 01:20:17;;;;;;;9.02;3.75;;;6.60;99.90;;;;;;5101766;28;20023;-36
2024/02/02 01:22:44;;;;;;;5.65;2.95;;;6.60;99.90;;;;;;5101335;28;20035;-35
2024/02/02 01:25:11;;;;;;;11.77;3.90;;;6.70;99.90;;;;;;5101398;28;20019;-35
2024/02/02 01:27:40;;;;;;;8.57;3.90;;;6.60;99.90;;;;;;5101835;28;20100;-35
2024/02/02 01:30:07;;;;;;;8.68;3.50;;;6.60;99.90;;;;;;5098782;28;20020;-35
2024/02/02 01:32:33;;;;;;;6.47;3.22;;;6.60;99.90;;;;;;5101121;28;20421;-35
2024/02/02 01:34:59;;;;;;;7.65;3.30;;;6.60;99.90;;;;;;5101406;28;20016;-34
2024/02/02 01:37:25;;;;;;;7.18;3.10;;;6.70;99.90;;;;;;5100828;28;20072;-35
2024/02/02 01:39:50;;;;;;;6.57;2.95;;;6.70;99.90;;;;;;5101220;28;20055;-35
2024/02/02 01:42:16;;;;;;;8.18;3.13;;;6.70;99.90;;;;;;5101003;28;20066;-36
2024/02/02 01:44:42;;;;;;;6.70;3.10;;;6.70;99.90;;;;;;5100736;28;20026;-34
2024/02/02 01:47:07;;;;;;;7.15;2.88;;;6.70;99.90;;;;;;5100829;28;20028;-34
2024/02/02 01:49:36;;;;;;;9.00;2.95;;;6.70;99.90;;;;;;5101589;28;20032;-39
2024/02/02 01:52:03;;;;;;;7.68;2.92;;;6.80;99.90;;;;;;5100610;28;20031;-33
2024/02/02 01:54:30;;;;;;;9.70;2.97;;;6.70;99.90;;;;;;5101171;28;20042;-32
2024/02/02 01:56:56;;;;;;;7.38;3.15;;;6.80;99.90;;;;;;5100290;28;20034;-36
2024/02/02 01:59:24;;;;;;;7.53;2.60;;;6.70;99.90;;;;;;5101084;28;20020;-34
2024/02/02 02:01:50;;;;;;;10.13;3.38;;;6.80;99.90;;;;;;5101346;28;20015;-34
2024/02/02 02:04:16;;;;;;;7.10;2.47;;;6.70;99.90;;;;;;5080278;28;20042;-30
2024/02/02 02:06:41;;;;;;;7.30;3.20;;;6.80;99.90;;;;;;5100736;28;20137;-34
2024/02/02 02:09:10;;;;;;;8.07;3.13;;;6.80;99.90;;;;;;5101110;28;20511;-33
2024/02/02 02:11:35;;;;;;;7.00;2.78;;;6.80;99.90;;;;;;5099781;28;20032;-34
2024/02/02 02:14:01;;;;;;;7.10;2.83;;;6.80;99.90;;;;;;5100452;28;20889;-31
2024/02/02 02:16:27;;;;;;;5.75;2.67;;;6.80;99.90;;;;;;5100915;28;20039;-33
2024/02/02 02:18:53;;;;;;;8.07;2.85;;;6.80;99.90;;;;;;5099466;28;20051;-34
2024/02/02 02:21:28;;;;;;;7.13;3.17;;;6.80;99.90;;;;;;5100032;28;20544;-33
2024/02/02 02:23:54;;;;;;;9.88;2.97;;;6.80;99.90;;;;;;5097532;28;20975;-34
2024/02/02 02:26:21;;;;;;;8.13;2.70;;;6.80;99.90;;;;;;5099409;28;20058;-33
2024/02/02 02:28:47;;;;;;;10.70;2.95;;;6.80;99.90;;;;;;5100121;28;20024;-39
2024/02/02 02:31:14;;;;;;;6.03;2.67;;;6.80;99.90;;;;;;5099865;28;20027;-33
2024/02/02 02:33:41;;;;;;;10.18;3.05;;;6.80;99.90;;;;;;5099801;28;20028;-35
2024/02/02 02:36:07;;;;;;;6.65;3.00;;;6.80;99.90;;;;;;5100458;28;20012;-34
2024/02/02 02:38:34;;;;;;;7.88;3.40;;;6.80;99.90;;;;;;5100449;28;20350;-33
2024/02/02 02:41:00;;;;;;;7.63;3.28;;;6.80;99.90;;;;;;5098774;28;20016;-34
2024/02/02 02:43:27;;;;;;;6.38;2.72;;;6.80;99.90;;;;;;5099285;28;20023;-34
2024/02/02 02:45:53;;;;;;;7.28;3.17;;;6.90;99.90;;;;;;5100012;28;20020;-39
2024/02/02 02:48:19;;;;;;;8.57;3.55;;;6.90;99.90;;;;;;5098691;28;20077;-36
2024/02/02 02:50:45;;;;;;;7.40;3.60;;;6.90;99.90;;;;;;5099819;28;20588;-34
2024/02/02 02:53:10;;;;;;;9.95;3.45;;;6.90;99.90;;;;;;5098933;28;20073;-35
2024/02/02 02:55:36;;;;;;;10.30;3.90;;;6.90;99.90;;;;;;5099527;28;20023;-32
2024/02/02 02:58:02;;;;;;;13.55;4.55;;;6.90;99.90;;;;;;5099209;28;20019;-33
2024/02/02 03:00:29;;;;;;;8.07;3.85;;;6.90;99.90;;;;;;5099051;28;20023;-34
2024/02/02 03:02:55;;;;;;;8.43;3.65;;;6.80;99.90;;;;;;5099510;28;20039;-35
2024/02/02 03:05:21;;;;;;;8.25;3.63;;;6.90;99.90;;;;;;5099347;28;20031;-35
2024/02/02 03:07:46;;;;;;;12.45;3.85;;;6.80;99.90;;;;;;5099047;28;20089;-34
2024/02/02 03:10:12;;;;;;;12.00;4.47;;;6.80;99.90;;;;;;5099441;28;20498;-34
2024/02/02 03:12:38;;;;;;;7.35;3.70;;;6.80;99.90;;;;;;5099367;28;20156;-32
2024/02/02 03:15:06;;;;;;;12.48;4.57;;;6.80;99.90;;;;;;5098493;28;20020;-35
2024/02/02 03:17:31;;;;;;;10.70;4.32;;;6.80;99.90;;;;;;5098833;28;20031;-34
2024/02/02 03:19:57;;;;;;;9.77;3.85;;;6.80;99.90;;;;;;5098900;28;20027;-35
2024/02/02 03:22:23;;;;;;;10.18;4.10;;;6.80;99.90;;;;;;5098491;28;20131;-31
2024/02/02 03:24:51;;;;;;;11.73;4.50;;;6.80;99.90;;;;;;5099293;28;20016;-35
2024/02/02 03:27:18;;;;;;;12.02;4.75;;;6.70;99.90;;;;;;5099080;28;20131;-35
2024/02/02 03:29:43;;;;;;;10.85;3.97;;;6.70;99.90;;;;;;5098856;28;20054;-35
2024/02/02 03:32:10;;;;;;;10.15;3.97;;;6.70;99.90;;;;;;5098728;28;20507;-35
2024/02/02 03:34:38;;;;;;;9.45;4.72;;;6.60;99.90;;;;;;5099028;28;20051;-34
2024/02/02 03:37:04;;;;;;;8.52;4.50;;;6.60;99.90;;;;;;5099224;28;20057;-33
2024/02/02 03:39:29;;;;;;;6.38;3.78;;;6.60;99.90;;;;;;5098890;28;20572;-34
2024/02/02 03:41:55;;;;;;;7.80;4.05;;;6.60;99.90;;;;;;5099120;28;20023;-34
2024/02/02 03:44:21;;;;;;;9.18;4.20;;;6.60;99.90;;;;;;5098020;28;20652;-37
2024/02/02 03:46:46;;;;;;;11.10;5.13;;;6.50;99.90;;;;;;5099125;28;20557;-34
2024/02/02 03:49:13;;;;;;;11.07;4.88;;;6.50;99.90;;;;;;5098982;28;20028;-34
2024/02/02 03:51:38;;;;;;;12.60;5.30;;;6.50;99.90;;;;;;5098422;28;20024;-35
2024/02/02 03:54:04;;;;;;;9.63;5.18;;;6.50;99.90;;;;;;5101336;28;20030;-36
2024/02/02 03:56:30;;;;;;;7.85;4.53;;;6.50;99.90;;;;;;5101983;28;20024;-37
2024/02/02 03:58:56;;;;;;;7.97;4.85;;;6.50;99.90;;;;;;5102947;28;20031;-34
2024/02/02 04:01:21;;;;;;;11.48;5.45;;;6.40;99.90;;;;;;5103213;28;20123;-38
2024/02/02 04:03:47;;;;;;;9.48;4.82;;;6.40;99.90;;;;;;5103080;28;20631;-36
2024/02/02 04:06:12;;;;;;;12.63;5.47;;;6.40;99.90;;;;;;5102582;28;20047;-36
2024/02/02 04:08:38;;;;;;;9.10;4.82;;;6.40;99.90;;;;;;5102884;28;20051;-36
2024/02/02 04:11:04;;;;;;;11.70;4.82;;;6.40;99.90;;;;;;5102059;28;20208;-33
2024/02/02 04:13:30;;;;;;;12.13;5.80;;;6.40;99.90;;;;;;5102559;28;20046;-32
2024/02/02 04:15:55;;;;;;;13.60;5.25;;;6.40;99.90;;;;;;5102931;28;20787;-32
2024/02/02 04:18:21;;;;;;;12.20;5.53;;;6.50;99.90;;;;;;5102176;28;20196;-34
2024/02/02 04:20:46;;;;;;;11.05;4.85;;;6.50;99.90;;;;;;5102727;28;20375;-37
2024/02/02 04:23:12;;;;;;;13.10;5.32;;;6.50;99.90;;;;;;5102835;28;20032;-34
2024/02/02 04:25:38;;;;;;;12.05;5.32;;;6.50;99.90;;;;;;5102106;28;20031;-34
2024/02/02 04:28:05;;;;;;;7.28;4.63;;;6.50;99.90;;;;;;5102327;28;20034;-33
2024/02/02 04:30:30;;;;;;;10.80;4.70;;;6.50;99.90;;;;;;5102797;28;20031;-35
2024/02/02 04:32:59;;;;;;;11.10;5.35;;;6.50;99.90;;;;;;5101559;28;20089;-34
2024/02/02 04:35:25;;;;;;;12.05;5.68;;;6.60;99.90;;;;;;5103195;28;20126;-37
2024/02/02 04:37:50;;;;;;;13.25;5.03;;;6.60;99.90;;;;;;5101763;28;20479;-31
2024/02/02 04:40:16;;;;;;;9.13;4.25;;;6.60;99.90;;;;;;5101472;28;20104;-35
2024/02/02 04:42:44;;;;;;;10.05;4.55;;;6.60;99.90;;;;;;5103191;28;20028;-35
2024/02/02 04:45:10;;;;;;;11.02;4.97;;;6.60;99.90;;;;;;5101963;28;20394;-32
2024/02/02 04:47:35;;;;;;;11.10;4.90;;;6.60;99.90;;;;;;5101667;28;20030;-34
2024/02/02 04:50:01;;;;;;;6.85;4.03;;;6.60;99.90;;;;;;5102317;28;20028;-35
2024/02/02 04:52:27;;;;;;;10.32;4.43;;;6.60;99.90;;;;;;5102146;28;20977;-37
2024/02/02 04:54:53;;;;;;;9.27;4.18;;;6.60;99.90;;;;;;5101073;28;20036;-33
2024/02/02 04:57:19;;;;;;;12.10;4.18;;;6.60;99.90;;;;;;5101556;28;20027;-36
2024/02/02 04:59:45;;;;;;;9.50;3.60;;;6.60;99.90;;;;;;5101928;28;20402;-37
2024/02/02 05:02:10;;;;;;;13.68;4.35;;;6.60;99.90;;;;;;5101606;28;20026;-33
2024/02/02 05:04:36;;;;;;;9.77;4.38;;;6.60;99.90;;;;;;5102080;28;20182;-35
2024/02/02 05:07:02;;;;;;;11.93;3.92;;;6.60;99.90;;;;;;5101212;28;20027;-34
2024/02/02 05:09:28;;;;;;;12.02;4.43;;;6.50;99.90;;;;;;5101507;28;20051;-35
2024/02/02 05:11:53;;;;;;;13.70;4.30;;;6.50;99.90;;;;;;5101878;28;20023;-33
2024/02/02 05:14:19;;;;;;;8.98;4.03;;;6.60;99.90;;;;;;5100448;28;20027;-33
2024/02/02 05:16:44;;;;;;;9.88;3.88;;;6.50;99.90;;;;;;5101321;28;20039;-32
2024/02/02 05:19:10;;;;;;;9.65;3.53;;;6.50;99.90;;;;;;5101323;28;20490;-32
2024/02/02 05:21:35;;;;;;;8.05;3.38;;;6.60;99.90;;;;;;5100796;28;20055;-32
2024/02/02 05:24:01;;;;;;;8.63;3.55;;;6.60;99.90;;;;;;5101376;28;20031;-32
2024/02/02 05:26:27;;;;;;;7.00;3.40;;;6.50;99.90;;;;;;5101758;28;20641;-32
2024/02/02 05:28:52;;;;;;;7.35;3.80;;;6.60;99.90;;;;;;5100435;28;20024;-35
2024/02/02 05:31:18;;;;;;;9.40;3.80;;;6.50;99.90;;;;;;5101489;28;20031;-35
2024/02/02 05:33:44;;;;;;;11.15;3.47;;;6.60;99.90;;;;;;5101552;28;20035;-33
2024/02/02 05:36:10;;;;;;;9.75;4.00;;;6.50;99.90;;;;;;5100593;28;20034;-33
2024/02/02 05:38:37;;;;;;;8.27;3.05;;;6.60;99.90;;;;;;5102385;28;20016;-34
2024/02/02 05:41:03;;;;;;;8.93;3.47;;;6.50;99.90;;;;;;5101872;28;20028;-33
2024/02/02 05:43:30;;;;;;;9.43;2.97;;;6.60;99.90;;;;;;5100098;28;20024;-36
2024/02/02 05:45:55;;;;;;;6.60;2.72;;;6.60;99.90;;;;;;5090141;28;20080;-35
2024/02/02 05:48:21;;;;;;;11.07;3.55;;;6.60;99.90;;;;;;5101485;28;20024;-37
2024/02/02 05:50:47;;;;;;;10.32;3.45;;;6.60;99.90;;;;;;5100328;28;20028;-33
2024/02/02 05:53:13;;;;;;;9.65;3.00;;;6.60;99.90;;;;;;5100541;28;20038;-37
2024/02/02 05:55:39;;;;;;;10.75;3.80;;;6.60;99.90;;;;;;5101180;28;20102;-34
2024/02/02 05:58:05;;;;;;;8.15;2.85;;;6.60;99.90;;;;;;5099665;28;20504;-35
2024/02/02 06:00:31;;;;;;;9.68;3.28;;;6.60;99.90;;;;;;5100704;28;20023;-36
2024/02/02 06:02:59;;;;;;;7.22;3.00;;;6.60;99.90;;;;;;5100171;28;20040;-35
2024/02/02 06:05:25;;;;;;;9.68;3.60;;;6.60;99.90;;;;;;5099848;28;20047;-36
2024/02/02 06:07:50;;;;;;;8.90;3.10;;;6.60;99.90;;;;;;5100564;28;20176;-37
2024/02/02 06:10:16;;;;;;;10.93;3.03;;;6.60;99.90;;;;;;5098753;28;20314;-36
2024/02/02 06:12:41;;;;;;;7.68;2.55;;;6.60;99.90;;;;;;5100773;28;20036;-37
2024/02/02 06:15:08;;;;;;;7.85;2.20;;;6.60;99.90;;;;;;5100827;28;20148;-34
2024/02/02 06:17:34;;;;;;;9.27;3.05;;;6.50;99.90;;;;;;5099205;28;20027;-37
2024/02/02 06:20:00;;;;;;;7.47;2.80;;;6.60;99.90;;;;;;5101137;28;20147;-33
2024/02/02 06:22:25;;;;;;;10.20;3.05;;;6.50;99.90;;;;;;5099855;28;20451;-36
2024/02/02 06:24:51;;;;;;;15.13;3.60;;;6.60;99.90;;;;;;5100039;28;20020;-37
2024/02/02 06:27:16;;;;;;;11.55;3.70;;;6.60;99.90;;;;;;5100440;28;20069;-36
2024/02/02 06:29:43;;;;;;;9.10;3.28;;;6.60;99.90;;;;;;5101040;28;20088;-34
2024/02/02 06:32:09;;;;;;;7.15;3.10;;;6.70;99.90;;;;;;5098897;28;20028;-35
2024/02/02 06:34:34;;;;;;;8.27;2.83;;;6.70;99.90;;;;;;5099553;28;20038;-32
2024/02/02 06:37:00;;;;;;;8.88;2.88;;;6.60;99.90;;;;;;5099985;28;20390;-32
2024/02/02 06:39:25;;;;;;;12.15;3.47;;;6.60;99.90;;;;;;5100292;28;20107;-37
2024/02/02 06:41:51;;;;;;;9.90;3.05;;;6.60;99.90;;;;;;5100256;28;20027;-36
2024/02/02 06:44:17;;;;;;;10.90;3.40;;;6.60;99.90;;;;;;5099855;28;20024;-35
2024/02/02 06:46:43;;;;;;;8.65;3.35;;;6.60;99.90;;;;;;5099767;28;20101;-34
2024/02/02 06:49:09;;;;;;;8.88;3.40;;;6.60;99.90;;;;;;5100350;28;20035;-32
2024/02/02 06:51:34;;;;;;;15.10;3.83;;;6.60;99.90;;;;;;5100628;28;20027;-32
2024/02/02 06:54:00;;;;;;;9.82;2.90;;;6.60;99.90;;;;;;5100022;28;20602;-36
2024/02/02 06:56:37;;;;;;;8.40;3.38;;;6.60;99.90;;;;;;5099850;28;20721;-35
2024/02/02 06:59:07;;;;;;;11.30;3.35;;;6.60;99.90;;;;;;5100138;28;20027;-35
2024/02/02 07:01:33;;;;;;;9.85;3.03;;;6.60;99.90;;;;;;5098885;28;20027;-33
2024/02/02 07:04:02;;;;;;;8.52;3.03;;;6.70;99.90;;;;;;5100638;28;20076;-33
2024/02/02 07:06:31;;;;;;;11.00;3.65;;;6.70;99.90;;;;;;5099188;28;20016;-32
2024/02/02 07:09:01;;;;;;;9.75;3.50;;;6.70;99.90;;;;;;5100188;28;20019;-37
2024/02/02 07:11:33;;;;;;;11.52;3.45;;;6.70;99.90;;;;;;5100036;28;20022;-36
2024/02/02 07:13:59;;;;;;;7.38;2.78;;;6.70;99.90;;;;;;5099070;28;20046;-32
2024/02/02 07:16:29;;;;;;;8.95;2.90;;;6.70;99.90;;;;;;5099535;28;20080;-35
2024/02/02 07:18:55;;;;;;;10.32;3.05;;;6.80;99.90;;;;;;5100230;28;20051;-36
2024/02/02 07:21:31;;;;;;;8.65;2.80;;;6.80;99.90;;;;;;5098750;28;20023;-32
2024/02/02 07:23:58;;;;;;;7.22;2.35;;;6.80;99.90;;;;;;5099404;28;20024;-34
2024/02/02 07:26:32;;;;;;;8.60;3.55;;;6.80;99.90;;;;;;5099412;28;20617;-36
2024/02/02 07:29:01;;;;;;;12.82;3.38;;;6.80;99.90;;;;;;5094468;28;20032;-35
2024/02/02 07:31:35;;;;;;;8.07;3.10;;;6.80;99.90;;;;;;5100171;28;20077;-33
2024/02/02 07:34:09;;;;;;;9.40;3.67;;;6.80;99.90;;;;;;5099285;28;20027;-35
2024/02/02 07:36:35;;;;;;;9.10;3.35;;;6.90;99.90;;;;;;5098870;28;20039;-35
2024/02/02 07:39:01;;;;;;;11.57;3.95;;;6.90;99.90;;;;;;5099405;28;20011;-34
2024/02/02 07:41:28;;;;;;;10.88;3.55;;;6.90;99.90;;;;;;5098209;28;20036;-34
2024/02/02 07:43:57;;;;;;;13.07;4.25;;;7.00;99.90;;;;;;5099109;28;20026;-34
2024/02/02 07:46:26;;;;;;;11.32;4.00;;;6.90;99.90;;;;;;5098826;28;20027;-35
2024/02/02 07:48:53;;;;;;;9.88;4.60;;;6.90;99.90;;;;;;5097518;28;20031;-33
2024/02/02 07:51:20;;;;;;;11.82;5.30;;;7.00;99.90;;;;;;5098784;28;20814;-33
2024/02/02 07:53:46;;;;;;;10.93;4.47;;;7.00;99.90;;;;;;5099120;28;20402;-36
2024/02/02 07:56:13;;;;;;;13.00;5.13;;;7.00;99.90;;;;;;5098683;28;20055;-35
2024/02/02 07:58:41;;;;;;;13.43;5.20;;;7.00;99.90;;;;;;5099366;28;20024;-36
2024/02/02 08:01:09;;;;;;;13.38;5.63;;;7.10;99.90;;;;;;5098978;28;20020;-37
2024/02/02 08:03:35;;;;;;;11.50;5.60;;;7.10;99.90;;;;;;5098045;28;20081;-35
2024/02/02 08:06:01;;;;;;;13.18;5.82;;;7.10;99.90;;;;;;5098457;28;20028;-35
2024/02/02 08:08:30;;;;;;;12.20;6.00;;;7.10;99.90;;;;;;5098765;28;20024;-32
2024/02/02 08:10:56;;;;;;;16.67;6.93;;;7.10;99.90;;;;;;5098389;28;20031;-34
2024/02/02 08:13:22;;;;;;;15.13;6.20;;;7.10;99.90;;;;;;5097813;28;20105;-32
2024/02/02 08:15:48;;;;;;;9.68;5.85;;;7.20;99.90;;;;;;5098909;28;20019;-33
2024/02/02 08:18:14;;;;;;;12.68;5.75;;;7.20;99.90;;;;;;5097869;28;20052;-33
2024/02/02 08:20:39;;;;;;;13.57;6.22;;;7.20;99.90;;;;;;5095302;28;20628;-38
2024/02/02 08:23:08;;;;;;;15.43;6.85;;;7.20;99.90;;;;;;5099239;28;20031;-33
2024/02/02 08:25:34;;;;;;;19.58;6.97;;;7.30;99.90;;;;;;5098013;28;20890;-35
2024/02/02 08:28:00;;;;;;;13.90;7.57;;;7.30;99.90;;;;;;5098266;28;20028;-35
2024/02/02 08:30:26;;;;;;;15.35;7.15;;;7.30;99.90;;;;;;5097825;28;20658;-37
2024/02/02 08:32:54;;;;;;;15.48;8.65;;;7.30;99.90;;;;;;5095710;28;20776;-35
2024/02/02 08:35:25;;;;;;;18.90;8.57;;;7.30;99.90;;;;;;5096743;28;20819;-34
2024/02/02 08:37:54;;;;;;;15.20;7.60;;;7.40;99.90;;;;;;5096858;28;20065;-35
2024/02/02 08:40:55;;;;;;;14.02;7.40;;;7.40;99.90;;;;;;5098458;28;20510;-36
2024/02/02 08:43:21;;;;;;;15.00;7.35;;;7.40;99.90;;;;;;5016369;28;20029;-36
2024/02/02 08:46:01;;;;;;;16.63;7.30;;;7.40;99.90;;;;;;5082376;28;20038;-35
2024/02/02 08:48:45;;;;;;;16.73;6.38;;;7.40;99.90;;;;;;5082007;28;20433;-35
2024/02/02 08:51:23;;;;;;;11.50;5.60;;;7.50;99.90;;;;;;5098555;28;20462;-33
2024/02/02 08:53:49;;;;;;;14.10;6.97;;;7.50;99.90;;;;;;5101254;28;20150;-35
2024/02/02 08:56:15;;;;;;;18.38;7.05;;;7.50;99.90;;;;;;5101593;28;20142;-35
2024/02/02 08:58:41;;;;;;;15.38;6.25;;;7.60;99.90;;;;;;5082282;28;20472;-32
2024/02/02 09:01:25;;;;;;;16.65;7.70;;;7.60;99.90;;;;;;5094367;28;20102;-37
2024/02/02 09:03:52;;;;;;;18.55;7.70;;;7.60;99.90;;;;;;5101548;28;20032;-36
2024/02/02 09:06:33;;;;;;;15.35;6.72;;;7.60;99.90;;;;;;5100876;28;20034;-36
2024/02/02 09:09:01;;;;;;;13.50;6.50;;;7.60;99.90;;;;;;5100934;28;20378;-34
2024/02/02 09:11:26;;;;;;;15.48;6.80;;;7.70;99.90;;;;;;5101299;28;20106;-36
2024/02/02 09:14:18;;;;;;;13.85;7.07;;;7.70;99.90;;;;;;5101355;28;20038;-35
2024/02/02 09:16:52;;;;;;;18.52;8.18;;;7.70;99.90;;;;;;5101762;28;20032;-31
2024/02/02 09:19:33;;;;;;;17.52;7.50;;;7.70;99.90;;;;;;5101519;28;20731;-36
2024/02/02 09:22:04;;;;;;;19.33;7.07;;;7.80;99.90;;;;;;5101012;28;20027;-36
2024/02/02 09:24:40;;;;;;;17.17;8.43;;;7.80;99.90;;;;;;5101519;28;20027;-32
2024/02/02 09:27:11;;;;;;;16.73;7.80;;;7.80;99.90;;;;;;5100283;28;20523;-32
2024/02/02 09:29:45;;;;;;;15.35;7.65;;;7.90;99.90;;;;;;5101136;28;20059;-35
2024/02/02 09:32:12;;;;;;;14.93;6.63;;;7.90;99.90;;;;;;5100804;28;20043;-33
2024/02/02 09:34:39;;;;;;;15.05;7.70;;;7.90;99.90;;;;;;5100816;28;20042;-37
2024/02/02 09:37:10;;;;;;;18.83;7.88;;;7.90;99.90;;;;;;5101259;28;20030;-33
2024/02/02 09:39:56;;;;;;;25.00;9.93;;;7.90;99.90;;;;;;5101073;28;20027;-33
2024/02/02 09:42:54;;;;;;;15.15;8.38;;;7.90;99.90;;;;;;5100218;28;20133;-31
2024/02/02 09:45:43;;;;;;;17.85;8.00;;;8.00;99.90;;;;;;5081199;28;20031;-30
2024/02/02 09:48:27;;;;;;;14.13;7.38;;;8.00;99.90;;;;;;5085844;28;20530;-35
2024/02/02 09:51:11;;;;;;;16.08;8.35;;;8.00;99.90;;;;;;5079426;28;20032;-36
2024/02/02 09:54:33;;;;;;;23.00;9.15;;;8.10;99.90;;;;;;5099322;28;20155;-31
2024/02/02 09:57:25;;;;;;;18.77;9.48;;;8.10;99.90;;;;;;5036390;28;20555;-35
2024/02/02 10:00:20;;;;;;;17.10;8.15;;;8.10;99.90;;;;;;5099056;28;20097;-32
2024/02/02 10:03:00;;;;;;;17.50;8.02;;;8.20;99.90;;;;;;5100511;28;20027;-34
2024/02/02 10:05:34;;;;;;;13.65;7.82;;;8.20;99.90;;;;;;5100591;28;20133;-35
2024/02/02 10:08:29;;;;;;;18.73;8.48;;;8.20;99.90;;;;;;5100072;28;20070;-37
2024/02/02 10:11:31;;;;;;;21.55;9.27;;;8.30;99.90;;;;;;5082191;28;20835;-36
2024/02/02 10:14:32;;;;;;;16.05;8.35;;;8.30;99.90;;;;;;5100695;28;20043;-37
2024/02/02 10:17:01;;;;;;;16.65;8.30;;;8.30;99.90;;;;;;5100199;28;20027;-36
2024/02/02 10:19:54;;;;;;;17.63;8.93;;;8.30;99.90;;;;;;5098129;28;20083;-37
2024/02/02 10:22:52;;;;;;;18.02;8.05;;;8.40;99.90;;;;;;5100193;28;20067;-33
2024/02/02 10:25:26;;;;;;;16.30;8.13;;;8.40;99.90;;;;;;5070254;28;20576;-33
2024/02/02 10:28:19;;;;;;;18.08;8.25;;;8.40;99.90;;;;;;5099826;28;20289;-35
2024/02/02 10:31:03;;;;;;;18.48;8.65;;;8.40;99.90;;;;;;5091310;28;20043;-37
2024/02/02 10:33:47;;;;;;;19.63;9.45;;;8.50;99.90;;;;;;5100229;28;20035;-35
2024/02/02 10:36:24;;;;;;;19.10;9.35;;;8.50;99.90;;;;;;5100097;28;20062;-33
2024/02/02 10:39:09;;;;;;;20.85;10.52;;;8.50;99.90;;;;;;5099229;28;20032;-33
2024/02/02 10:42:07;;;;;;;20.67;10.20;;;8.50;99.90;;;;;;5100131;28;20066;-34
2024/02/02 10:45:05;;;;;;;16.27;8.13;;;8.50;99.90;;;;;;5099077;28;20092;-36
2024/02/02 10:47:52;;;;;;;18.67;10.27;;;8.60;99.90;;;;;;5078894;28;20630;-34
2024/02/02 10:50:42;;;;;;;19.85;9.38;;;8.60;99.90;;;;;;5097904;28;20024;-35
2024/02/02 10:53:35;;;;;;;19.58;9.73;;;8.60;99.90;;;;;;5098828;28;20117;-35
2024/02/02 10:56:13;;;;;;;19.73;9.50;;;8.70;99.90;;;;;;5097178;28;20015;-33
2024/02/02 10:58:54;;;;;;;19.25;9.30;;;8.70;99.90;;;;;;5099112;28;20027;-34
2024/02/02 11:01:52;;;;;;;26.52;10.90;;;8.70;99.90;;;;;;5100036;28;20045;-35
2024/02/02 11:04:30;;;;;;;16.00;9.40;;;8.70;99.90;;;;;;5099222;28;20051;-34
2024/02/02 11:07:09;;;;;;;17.90;8.80;;;8.80;99.90;;;;;;5099388;28;20059;-36
2024/02/02 11:09:46;;;;;;;17.45;9.52;;;8.80;99.90;;;;;;5099338;28;20509;-31
2024/02/02 11:12:20;;;;;;;17.45;9.77;;;8.80;99.90;;;;;;5099880;28;20023;-36
2024/02/02 11:15:33;;;;;;;22.77;11.25;;;8.90;99.90;;;;;;5098993;28;20042;-33
2024/02/02 11:18:44;;;;;;;27.20;11.52;;;8.90;99.90;;;;;;5062522;28;20414;-35
2024/02/02 11:21:38;;;;;;;23.75;11.30;;;8.90;99.90;;;;;;5059624;28;20658;-36
2024/02/02 11:24:35;;;;;;;16.10;9.85;;;8.90;99.90;;;;;;5098910;28;20841;-34
2024/02/02 11:27:10;;;;;;;23.38;11.25;;;9.00;99.90;;;;;;5096394;28;20036;-35
2024/02/02 11:29:46;;;;;;;25.13;11.90;;;9.00;99.90;;;;;;5098877;28;20015;-36
2024/02/02 11:32:53;;;;;;;20.70;10.88;;;9.00;99.90;;;;;;5096884;28;20119;-35
2024/02/02 11:35:33;;;;;;;21.75;11.40;;;9.00;99.90;;;;;;5052156;28;20508;-34
2024/02/02 11:38:18;;;;;;;24.02;12.80;;;9.10;99.90;;;;;;5099515;28;20066;-36
2024/02/02 11:40:47;;;;;;;22.77;13.20;;;9.10;99.90;;;;;;5098618;28;20024;-34
2024/02/02 11:43:15;;;;;;;24.05;14.15;;;9.10;99.90;;;;;;5098195;28;20902;-39
2024/02/02 11:45:42;;;;;;;23.77;12.73;;;9.10;99.90;;;;;;5098812;28;20019;-33
2024/02/02 11:48:15;;;;;;;19.08;11.15;;;9.10;99.90;;;;;;5097190;28;20071;-32
2024/02/02 11:50:47;;;;;;;20.83;11.02;;;9.10;99.90;;;;;;5099169;28;20016;-33
2024/02/02 11:53:46;;;;;;;22.25;12.38;;;9.10;99.90;;;;;;5087564;28;20108;-31
2024/02/02 11:56:24;;;;;;;22.52;12.30;;;9.20;99.90;;;;;;5097936;28;20020;-31
2024/02/02 11:59:04;;;;;;;21.02;10.32;;;9.20;99.90;;;;;;5099139;28;20031;-32
2024/02/02 12:02:02;;;;;;;21.10;11.65;;;9.20;99.90;;;;;;5099461;28;20035;-34
2024/02/02 12:04:40;;;;;;;21.25;11.57;;;9.20;99.90;;;;;;5093054;28;20791;-34
2024/02/02 12:07:28;;;;;;;24.27;11.85;;;9.20;99.90;;;;;;5099447;28;20024;-36
2024/02/02 12:10:05;;;;;;;20.02;11.13;;;9.20;99.90;;;;;;5098801;28;20110;-34
2024/02/02 12:12:48;;;;;;;19.58;10.00;;;9.20;99.90;;;;;;5098968;28;20027;-32
2024/02/02 12:15:14;;;;;;;19.60;11.00;;;9.20;99.90;;;;;;5100328;28;20024;-36
2024/02/02 12:17:40;;;;;;;21.38;10.73;;;9.20;99.90;;;;;;5101703;28;20101;-34
2024/02/02 12:20:09;;;;;;;18.90;9.75;;;9.10;99.90;;;;;;5103010;28;20032;-33
2024/02/02 12:22:39;;;;;;;16.20;9.68;;;9.20;99.90;;;;;;5102404;28;20038;-36
2024/02/02 12:25:09;;;;;;;22.40;9.93;;;9.20;99.90;;;;;;5102429;28;20101;-35
2024/02/02 12:27:35;;;;;;;21.00;10.75;;;9.20;99.90;;;;;;5102604;28;20027;-36
2024/02/02 12:30:02;;;;;;;16.08;9.40;;;9.20;99.90;;;;;;5101856;28;20042;-33
2024/02/02 12:32:28;;;;;;;17.13;10.50;;;9.20;99.90;;;;;;5101995;28;20101;-37
2024/02/02 12:34:57;;;;;;;19.52;9.80;;;9.20;99.90;;;;;;5101015;28;20031;-35
2024/02/02 12:37:22;;;;;;;21.70;9.70;;;9.20;99.90;;;;;;5100932;28;20931;-34
2024/02/02 12:39:52;;;;;;;22.48;11.63;;;9.20;99.90;;;;;;5101113;28;20027;-38
2024/02/02 12:42:21;;;;;;;18.55;10.32;;;9.20;99.90;;;;;;5100853;28;20580;-34
2024/02/02 12:44:50;;;;;;;21.70;10.75;;;9.20;99.90;;;;;;5100658;28;20093;-34
2024/02/02 12:47:23;;;;;;;20.08;11.38;;;9.20;99.90;;;;;;5101214;28;20108;-35
2024/02/02 12:49:48;;;;;;;16.20;10.80;;;9.20;99.90;;;;;;5102537;28;20031;-32
2024/02/02 12:52:15;;;;;;;20.95;10.73;;;9.20;99.90;;;;;;5101644;28;20039;-35
2024/02/02 12:54:41;;;;;;;21.05;11.40;;;9.30;99.90;;;;;;5101654;28;20023;-35
2024/02/02 12:57:08;;;;;;;17.55;10.80;;;9.30;99.90;;;;;;5102658;28;20114;-34
2024/02/02 12:59:34;;;;;;;20.95;11.75;;;9.30;99.90;;;;;;5101563;28;20106;-34
2024/02/02 13:01:59;;;;;;;20.17;11.10;;;9.30;99.90;;;;;;5101915;28;20562;-33
2024/02/02 13:04:26;;;;;;;17.67;10.73;;;9.30;99.90;;;;;;5101542;28;20036;-35
2024/02/02 13:06:52;;;;;;;18.58;10.95;;;9.40;99.90;;;;;;5101274;28;20034;-37
2024/02/02 13:09:29;;;;;;;24.13;12.63;;;9.40;99.90;;;;;;5101863;28;20024;-34